Time;durP1;ratioP1;P1;durP2;ratioP2;P2;SDS_P1;SDS_P2;PMS_P1;PMS_P2;Temp;Humidity;BMP_temperature;BMP_pressure;BME280_temperature;BME280_humidity;BME280_pressure;Samples;Min_cycle;Max_cycle;Signal;HPM_P1;HPM_P2
2023/12/17 00:00:55;;;;;;;1999.90;999.90;;;0.50;99.90;;;;;;5117433;28;20031;-73
2023/12/17 00:03:20;;;;;;;1999.90;999.90;;;0.60;99.90;;;;;;5117152;28;20493;-73
2023/12/17 00:05:49;;;;;;;1999.90;999.90;;;0.60;99.90;;;;;;5117025;28;20028;-73
2023/12/17 00:08:19;;;;;;;1999.90;999.90;;;0.50;99.90;;;;;;5117444;28;20040;-73
2023/12/17 00:10:54;;;;;;;1999.90;999.90;;;0.50;99.90;;;;;;5117094;28;20477;-73
2023/12/17 00:13:19;;;;;;;1999.90;999.90;;;0.40;99.90;;;;;;5117684;28;20040;-72
2023/12/17 00:15:45;;;;;;;1999.90;999.90;;;0.50;99.90;;;;;;5124395;22;20056;-71
2023/12/17 00:18:12;;;;;;;1999.90;999.90;;;0.50;99.90;;;;;;5096593;28;20378;-71
2023/12/17 00:20:38;;;;;;;1999.90;999.90;;;0.50;99.90;;;;;;5095278;28;20050;-71
2023/12/17 00:23:04;;;;;;;1999.90;999.90;;;0.40;99.90;;;;;;5096537;28;20501;-71
2023/12/17 00:25:33;;;;;;;1999.90;999.90;;;0.40;99.90;;;;;;5096357;28;20037;-71
2023/12/17 00:27:58;;;;;;;1999.90;999.90;;;0.30;99.90;;;;;;5096185;28;20062;-71
2023/12/17 00:30:24;;;;;;;1999.90;999.90;;;0.30;99.90;;;;;;5094999;28;20036;-71
2023/12/17 00:32:50;;;;;;;1999.90;999.90;;;0.30;99.90;;;;;;5096460;28;20043;-71
2023/12/17 00:35:15;;;;;;;1999.90;999.90;;;0.40;99.90;;;;;;5094614;28;20036;-71
2023/12/17 00:37:41;;;;;;;1999.90;999.90;;;0.30;99.90;;;;;;5095997;28;20079;-71
2023/12/17 00:40:07;;;;;;;1999.90;999.90;;;0.30;99.90;;;;;;5094943;28;20037;-71
2023/12/17 00:42:33;;;;;;;1999.90;999.90;;;0.30;99.90;;;;;;5095847;28;20068;-71
2023/12/17 00:44:58;;;;;;;1999.90;999.90;;;0.40;99.90;;;;;;5096099;28;20067;-71
2023/12/17 00:47:24;;;;;;;1999.90;999.90;;;0.30;99.90;;;;;;5095800;28;20101;-71
2023/12/17 00:49:50;;;;;;;1999.90;999.90;;;0.30;99.90;;;;;;5096020;28;20029;-73
2023/12/17 00:52:16;;;;;;;1999.90;999.90;;;0.30;99.90;;;;;;5096203;28;20032;-71
2023/12/17 00:54:41;;;;;;;1999.90;999.90;;;0.40;99.90;;;;;;5096166;28;20417;-73
2023/12/17 00:57:07;;;;;;;1999.90;999.90;;;0.40;99.90;;;;;;5095536;28;20112;-72
2023/12/17 00:59:32;;;;;;;1999.90;999.90;;;0.50;99.90;;;;;;5095687;28;20040;-74
2023/12/17 01:01:58;;;;;;;1999.90;999.90;;;0.40;99.90;;;;;;5096041;28;20044;-71
2023/12/17 01:04:23;;;;;;;1999.90;999.90;;;0.40;99.90;;;;;;5094473;28;20037;-71
2023/12/17 01:06:49;;;;;;;1999.90;999.90;;;0.40;99.90;;;;;;5095557;28;20527;-74
2023/12/17 01:09:15;;;;;;;1999.90;999.90;;;0.40;99.90;;;;;;5095903;28;20039;-71
2023/12/17 01:11:42;;;;;;;1999.90;999.90;;;0.40;99.90;;;;;;5095873;28;20055;-71
2023/12/17 01:14:07;;;;;;;1999.90;999.90;;;0.40;99.90;;;;;;5095847;28;20029;-71
2023/12/17 01:16:33;;;;;;;1999.90;999.90;;;0.30;99.90;;;;;;5094787;28;20086;-71
2023/12/17 01:18:58;;;;;;;1999.90;999.90;;;0.30;99.90;;;;;;5095729;28;20551;-71
2023/12/17 01:21:24;;;;;;;1999.90;999.90;;;0.30;99.90;;;;;;5095793;28;20063;-71
2023/12/17 01:23:49;;;;;;;1999.90;999.90;;;0.20;99.90;;;;;;5095830;28;20064;-71
2023/12/17 01:26:20;;;;;;;1999.90;999.90;;;0.20;99.90;;;;;;5094912;28;20540;-71
2023/12/17 01:28:46;;;;;;;1999.90;999.90;;;0.20;99.90;;;;;;5095565;28;20040;-72
2023/12/17 01:31:12;;;;;;;1999.90;999.90;;;0.30;99.90;;;;;;5095506;28;20029;-71
2023/12/17 01:33:37;;;;;;;1999.90;999.90;;;0.20;99.90;;;;;;5095286;28;20029;-74
2023/12/17 01:36:03;;;;;;;1999.90;999.90;;;0.10;99.90;;;;;;5093878;28;20494;-71
2023/12/17 01:38:29;;;;;;;1999.90;999.90;;;0.20;99.90;;;;;;5095057;28;20090;-72
2023/12/17 01:40:54;;;;;;;1999.90;999.90;;;0.10;99.90;;;;;;5095450;28;20108;-72
2023/12/17 01:43:20;;;;;;;1999.90;999.90;;;0.10;99.90;;;;;;5095424;28;20037;-71
2023/12/17 01:45:45;;;;;;;1999.90;999.90;;;0.20;99.90;;;;;;5094613;28;20035;-71
2023/12/17 01:48:11;;;;;;;1999.90;999.90;;;0.20;99.90;;;;;;5095286;28;20036;-72
2023/12/17 01:50:37;;;;;;;1999.90;999.90;;;0.10;99.90;;;;;;5095349;28;20036;-71
2023/12/17 01:53:04;;;;;;;1999.90;999.90;;;0.10;99.90;;;;;;5094334;28;20064;-73
2023/12/17 01:55:30;;;;;;;1999.90;999.90;;;0.20;99.90;;;;;;5095000;28;20029;-72
2023/12/17 01:57:56;;;;;;;1999.90;999.90;;;0.20;99.90;;;;;;5094678;28;20414;-72
2023/12/17 02:00:23;;;;;;;1999.90;999.90;;;0.20;99.90;;;;;;5094873;28;20036;-71
2023/12/17 02:02:48;;;;;;;1999.90;999.90;;;0.00;99.90;;;;;;5095147;28;20067;-71
2023/12/17 02:05:14;;;;;;;1999.90;999.90;;;0.00;99.90;;;;;;5095002;28;20475;-74
2023/12/17 02:07:41;;;;;;;1999.90;999.90;;;0.00;99.90;;;;;;5093367;28;20151;-71
2023/12/17 02:10:07;;;;;;;1999.90;999.90;;;0.10;99.90;;;;;;5095047;28;20033;-71
2023/12/17 02:12:32;;;;;;;1999.90;999.90;;;0.20;99.90;;;;;;5095023;28;20029;-71
2023/12/17 02:14:58;;;;;;;1999.90;999.90;;;0.10;99.90;;;;;;5094620;28;20033;-71
2023/12/17 02:17:29;;;;;;;1999.90;999.90;;;0.00;99.90;;;;;;5094785;28;20562;-71
2023/12/17 02:19:54;;;;;;;1999.90;999.90;;;0.00;99.90;;;;;;5094784;28;20045;-74
2023/12/17 02:22:22;;;;;;;1999.90;999.90;;;-0.10;99.90;;;;;;5094899;28;20032;-71
2023/12/17 02:24:49;;;;;;;1999.90;999.90;;;-0.20;99.90;;;;;;5094895;28;20028;-72
2023/12/17 02:27:25;;;;;;;1999.90;999.90;;;-0.10;99.90;;;;;;5094488;28;20039;-71
2023/12/17 02:29:52;;;;;;;1999.90;999.90;;;-0.10;99.90;;;;;;5093245;28;20460;-71
2023/12/17 02:32:23;;;;;;;1999.90;999.90;;;-0.10;99.90;;;;;;5094770;28;20032;-71
2023/12/17 02:34:49;;;;;;;1999.90;999.90;;;0.00;99.90;;;;;;5094778;28;20576;-75
2023/12/17 02:37:16;;;;;;;1999.90;999.90;;;0.00;99.90;;;;;;5094251;28;20033;-73
2023/12/17 02:39:41;;;;;;;1999.90;999.90;;;-0.10;99.90;;;;;;5094568;28;20060;-72
2023/12/17 02:42:07;;;;;;;1999.90;999.90;;;-0.10;99.90;;;;;;5094734;28;20600;-71
2023/12/17 02:44:33;;;;;;;1999.90;999.90;;;-0.30;99.90;;;;;;5094599;28;20474;-71
2023/12/17 02:46:59;;;;;;;1999.90;999.90;;;-0.30;99.90;;;;;;5093884;28;20044;-71
2023/12/17 02:49:25;;;;;;;1999.90;999.90;;;-0.30;99.90;;;;;;5093856;28;20037;-71
2023/12/17 02:51:51;;;;;;;1999.90;999.90;;;-0.20;99.90;;;;;;5094498;28;20071;-72
2023/12/17 02:54:18;;;;;;;1999.90;999.90;;;-0.30;99.90;;;;;;5094556;28;20040;-74
2023/12/17 02:56:43;;;;;;;1999.90;999.90;;;-0.30;99.90;;;;;;5093986;28;20060;-71
2023/12/17 02:59:10;;;;;;;1999.90;999.90;;;-0.30;99.90;;;;;;5094291;28;20111;-72
2023/12/17 03:01:36;;;;;;;1999.90;999.90;;;-0.30;99.90;;;;;;5083907;28;20044;-72
2023/12/17 03:04:05;;;;;;;1999.90;999.90;;;-0.20;99.90;;;;;;5086357;28;20032;-74
2023/12/17 03:06:30;;;;;;;1999.90;999.90;;;-0.10;99.90;;;;;;5097390;28;20029;-71
2023/12/17 03:08:56;;;;;;;1999.90;999.90;;;0.00;99.90;;;;;;5096269;28;20043;-72
2023/12/17 03:11:21;;;;;;;1999.90;999.90;;;0.00;99.90;;;;;;5097849;28;20106;-71
2023/12/17 03:13:47;;;;;;;1999.90;999.90;;;-0.10;99.90;;;;;;5097777;28;20433;-71
2023/12/17 03:16:12;;;;;;;1999.90;999.90;;;-0.10;99.90;;;;;;5096309;28;20036;-71
2023/12/17 03:18:38;;;;;;;1999.90;999.90;;;-0.10;99.90;;;;;;5097700;28;20044;-71
2023/12/17 03:21:05;;;;;;;1999.90;999.90;;;-0.20;99.90;;;;;;5097746;28;20486;-71
2023/12/17 03:23:31;;;;;;;1999.90;999.90;;;-0.20;99.90;;;;;;5097395;28;20123;-73
2023/12/17 03:25:57;;;;;;;1999.90;999.90;;;-0.20;99.90;;;;;;5095645;28;20116;-74
2023/12/17 03:28:22;;;;;;;1999.90;999.90;;;-0.20;99.90;;;;;;5096886;28;20793;-72
2023/12/17 03:30:48;;;;;;;1999.90;999.90;;;-0.20;99.90;;;;;;5097628;28;20478;-71
2023/12/17 03:33:14;;;;;;;1999.90;999.90;;;-0.20;99.90;;;;;;5095964;28;20498;-74
2023/12/17 03:35:39;;;;;;;1999.90;999.90;;;-0.20;99.90;;;;;;5097006;28;20033;-79
2023/12/17 03:38:06;;;;;;;1999.90;999.90;;;-0.30;99.90;;;;;;5097315;28;20494;-71
2023/12/17 03:40:32;;;;;;;1999.90;999.90;;;-0.30;99.90;;;;;;5097323;28;20061;-71
2023/12/17 03:42:57;;;;;;;1999.90;999.90;;;-0.30;99.90;;;;;;5097373;28;20111;-71
2023/12/17 03:45:23;;;;;;;1999.90;999.90;;;-0.40;99.90;;;;;;5096970;28;20462;-73
2023/12/17 03:47:49;;;;;;;1999.90;999.90;;;-0.40;99.90;;;;;;5097002;28;20056;-71
2023/12/17 03:50:17;;;;;;;1999.90;999.90;;;-0.40;99.90;;;;;;5097052;28;20046;-74
2023/12/17 03:52:46;;;;;;;1999.90;999.90;;;-0.30;99.90;;;;;;5097124;28;20033;-71
2023/12/17 03:55:11;;;;;;;1999.90;999.90;;;-0.40;99.90;;;;;;5095507;28;20051;-71
2023/12/17 03:57:37;;;;;;;1999.90;999.90;;;-0.40;99.90;;;;;;5096857;28;20490;-71
2023/12/17 04:00:03;;;;;;;1999.90;999.90;;;-0.30;99.90;;;;;;5096809;28;20048;-71
2023/12/17 04:02:29;;;;;;;1999.90;999.90;;;-0.30;99.90;;;;;;5096854;28;20029;-71
2023/12/17 04:04:55;;;;;;;1999.90;999.90;;;-0.30;99.90;;;;;;5096777;28;20033;-71
2023/12/17 04:07:20;;;;;;;1999.90;999.90;;;-0.40;99.90;;;;;;5096759;28;20033;-73
2023/12/17 04:09:47;;;;;;;1999.90;999.90;;;-0.40;99.90;;;;;;5096994;28;20043;-71
2023/12/17 04:12:13;;;;;;;1999.90;999.90;;;-0.50;99.90;;;;;;5095333;28;20059;-71
2023/12/17 04:14:39;;;;;;;1999.90;999.90;;;-0.40;99.90;;;;;;5096863;28;20481;-71
2023/12/17 04:17:04;;;;;;;1999.90;999.90;;;-0.40;99.90;;;;;;5095514;28;20032;-71
2023/12/17 04:19:30;;;;;;;1999.90;999.90;;;-0.30;99.90;;;;;;5096446;28;20040;-71
2023/12/17 04:21:55;;;;;;;1999.90;999.90;;;-0.30;99.90;;;;;;5096782;28;20031;-71
2023/12/17 04:24:21;;;;;;;1999.90;999.90;;;-0.20;99.90;;;;;;5096752;28;20064;-71
2023/12/17 04:26:46;;;;;;;1999.90;999.90;;;-0.20;99.90;;;;;;5095510;28;20041;-71
2023/12/17 04:29:12;;;;;;;1999.90;999.90;;;-0.30;99.90;;;;;;5096376;28;20044;-71
2023/12/17 04:31:37;;;;;;;1999.90;999.90;;;-0.20;99.90;;;;;;5095008;28;20500;-71
2023/12/17 04:34:03;;;;;;;1999.90;999.90;;;-0.30;99.90;;;;;;5095304;28;20036;-71
2023/12/17 04:36:28;;;;;;;1999.90;999.90;;;-0.30;99.90;;;;;;5094455;28;20044;-71
2023/12/17 04:38:54;;;;;;;1999.90;999.90;;;-0.40;99.90;;;;;;5096303;28;20041;-71
2023/12/17 04:41:19;;;;;;;1999.90;999.90;;;-0.40;99.90;;;;;;5094798;28;20425;-71
2023/12/17 04:43:45;;;;;;;1999.90;999.90;;;-0.50;99.90;;;;;;5096430;28;20465;-71
2023/12/17 04:46:11;;;;;;;1999.90;999.90;;;-0.40;99.90;;;;;;5095725;28;20072;-71
2023/12/17 04:48:36;;;;;;;1999.90;999.90;;;-0.40;99.90;;;;;;5096405;28;20174;-72
2023/12/17 04:51:02;;;;;;;1999.90;999.90;;;-0.50;99.90;;;;;;5096222;28;20025;-71
2023/12/17 04:53:28;;;;;;;1999.90;999.90;;;-0.60;99.90;;;;;;5096248;28;20040;-71
2023/12/17 04:55:53;;;;;;;1999.90;999.90;;;-0.60;99.90;;;;;;5095743;28;20068;-71
2023/12/17 04:58:19;;;;;;;1999.90;999.90;;;-0.60;99.90;;;;;;5095746;28;20041;-71
2023/12/17 05:00:44;;;;;;;1999.90;999.90;;;-0.50;99.90;;;;;;5096122;28;20032;-71
2023/12/17 05:03:10;;;;;;;1999.90;999.90;;;-0.50;99.90;;;;;;5094437;28;20032;-70
2023/12/17 05:05:36;;;;;;;1999.90;999.90;;;-0.60;99.90;;;;;;5095656;28;20375;-71
2023/12/17 05:08:01;;;;;;;1999.90;999.90;;;-0.60;99.90;;;;;;5095826;28;20543;-72
2023/12/17 05:10:27;;;;;;;1999.90;999.90;;;-0.60;99.90;;;;;;5095730;28;20028;-71
2023/12/17 05:12:53;;;;;;;1999.90;999.90;;;-0.60;99.90;;;;;;5094377;28;20043;-70
2023/12/17 05:15:20;;;;;;;1999.90;999.90;;;-0.60;99.90;;;;;;5095452;28;20064;-71
2023/12/17 05:17:45;;;;;;;1999.90;999.90;;;-0.70;99.90;;;;;;5095421;28;20037;-71
2023/12/17 05:20:11;;;;;;;1999.90;999.90;;;-0.70;99.90;;;;;;5095754;28;20048;-71
2023/12/17 05:22:36;;;;;;;1999.90;999.90;;;-0.70;99.90;;;;;;5095633;28;20039;-74
2023/12/17 05:25:02;;;;;;;1999.90;999.90;;;-0.70;99.90;;;;;;5095525;28;20037;-70
2023/12/17 05:27:28;;;;;;;1999.90;999.90;;;-0.70;99.90;;;;;;5094524;28;20517;-71
2023/12/17 05:29:53;;;;;;;1999.90;999.90;;;-0.80;99.90;;;;;;5095163;28;20048;-72
2023/12/17 05:32:19;;;;;;;1999.90;999.90;;;-0.70;99.90;;;;;;5095679;28;20500;-71
2023/12/17 05:34:44;;;;;;;1999.90;999.90;;;-0.80;99.90;;;;;;5095669;28;20508;-70
2023/12/17 05:37:10;;;;;;;1999.90;999.90;;;-0.80;99.90;;;;;;5094598;28;20437;-73
2023/12/17 05:39:35;;;;;;;1999.90;999.90;;;-0.70;99.90;;;;;;5095318;28;20043;-71
2023/12/17 05:42:01;;;;;;;1999.90;999.90;;;-0.80;99.90;;;;;;5095489;28;20030;-71
2023/12/17 05:44:27;;;;;;;1999.90;999.90;;;-0.80;99.90;;;;;;5093855;28;20119;-73
2023/12/17 05:46:52;;;;;;;1999.90;999.90;;;-0.70;99.90;;;;;;5094997;28;20051;-71
2023/12/17 05:49:18;;;;;;;1999.90;999.90;;;-0.80;99.90;;;;;;5095212;28;20077;-70
2023/12/17 05:51:43;;;;;;;1999.90;999.90;;;-0.80;99.90;;;;;;5095324;28;20033;-73
2023/12/17 05:54:11;;;;;;;1999.90;999.90;;;-0.70;99.90;;;;;;5095236;28;20091;-71
2023/12/17 05:56:43;;;;;;;1999.90;999.90;;;-0.70;99.90;;;;;;5094879;28;20031;-70
2023/12/17 05:59:09;;;;;;;1999.90;999.90;;;-0.60;99.90;;;;;;5095230;28;20046;-70
2023/12/17 06:01:35;;;;;;;1999.90;999.90;;;-0.60;99.90;;;;;;5093623;28;20035;-70
2023/12/17 06:04:01;;;;;;;1999.90;999.90;;;-0.60;99.90;;;;;;5095157;28;20516;-71
2023/12/17 06:06:26;;;;;;;1999.90;999.90;;;-0.50;99.90;;;;;;5093224;28;20036;-71
2023/12/17 06:08:53;;;;;;;1999.90;999.90;;;-0.60;99.90;;;;;;5093553;28;20060;-70
2023/12/17 06:11:18;;;;;;;1999.90;999.90;;;-0.60;99.90;;;;;;5095123;28;20104;-70
2023/12/17 06:13:45;;;;;;;1999.90;999.90;;;-0.50;99.90;;;;;;5093521;28;20036;-70
2023/12/17 06:16:11;;;;;;;1999.90;999.90;;;-0.50;99.90;;;;;;5092964;28;20205;-73
2023/12/17 06:18:38;;;;;;;1999.90;999.90;;;-0.50;99.90;;;;;;5094780;28;20051;-73
2023/12/17 06:21:04;;;;;;;1999.90;999.90;;;-0.50;99.90;;;;;;5094255;28;20039;-72
2023/12/17 06:23:31;;;;;;;1999.90;999.90;;;-0.50;99.90;;;;;;5092957;28;20413;-73
2023/12/17 06:25:57;;;;;;;1999.90;999.90;;;-0.60;99.90;;;;;;5094074;28;20074;-72
2023/12/17 06:28:24;;;;;;;1999.90;999.90;;;-0.60;99.90;;;;;;5094828;28;20394;-72
2023/12/17 06:30:50;;;;;;;1999.90;999.90;;;-0.60;99.90;;;;;;5094745;28;20029;-73
2023/12/17 06:33:15;;;;;;;1999.90;999.90;;;-0.60;99.90;;;;;;5094613;28;20041;-73
2023/12/17 06:35:41;;;;;;;1999.90;999.90;;;-0.60;99.90;;;;;;5093846;28;20029;-73
2023/12/17 06:38:06;;;;;;;1999.90;999.90;;;-0.60;99.90;;;;;;5094409;28;20075;-73
2023/12/17 06:40:32;;;;;;;1999.90;999.90;;;-0.70;99.90;;;;;;5095534;28;20033;-73
2023/12/17 06:42:58;;;;;;;1999.90;999.90;;;-0.60;99.90;;;;;;5098151;28;20568;-73
2023/12/17 06:45:23;;;;;;;1999.90;999.90;;;-0.60;99.90;;;;;;5097672;28;20032;-73
2023/12/17 06:47:49;;;;;;;1999.90;999.90;;;-0.60;99.90;;;;;;5097881;28;20037;-73
2023/12/17 06:50:15;;;;;;;1999.90;999.90;;;-0.70;99.90;;;;;;5097730;28;20383;-73
2023/12/17 06:52:41;;;;;;;1999.90;999.90;;;-0.60;99.90;;;;;;5096211;28;20029;-74
2023/12/17 06:55:07;;;;;;;1999.90;999.90;;;-0.70;99.90;;;;;;5097730;28;20119;-73
2023/12/17 06:57:33;;;;;;;1999.90;999.90;;;-0.80;99.90;;;;;;5097666;28;20624;-73
2023/12/17 06:59:59;;;;;;;1999.90;999.90;;;-0.80;99.90;;;;;;5097634;28;20190;-73
2023/12/17 07:02:24;;;;;;;1999.90;999.90;;;-0.80;99.90;;;;;;5098152;28;20037;-74
2023/12/17 07:04:50;;;;;;;1999.90;999.90;;;-0.80;99.90;;;;;;5101134;28;20059;-74
2023/12/17 07:07:15;;;;;;;1999.90;999.90;;;-0.80;99.90;;;;;;5117509;27;20032;-73
2023/12/17 07:09:41;;;;;;;1999.90;999.90;;;-0.80;99.90;;;;;;5118166;27;20032;-74
2023/12/17 07:12:07;;;;;;;1999.90;999.90;;;-0.70;99.90;;;;;;5100351;27;20384;-73
2023/12/17 07:14:32;;;;;;;1999.90;999.90;;;-0.80;99.90;;;;;;5084570;28;20115;-76
2023/12/17 07:16:58;;;;;;;1999.90;999.90;;;-0.70;99.90;;;;;;5085681;28;20036;-74
2023/12/17 07:19:23;;;;;;;1999.90;999.90;;;-0.80;99.90;;;;;;5088544;28;20116;-74
2023/12/17 07:21:49;;;;;;;1999.90;999.90;;;-0.90;99.90;;;;;;5085929;28;20051;-74
2023/12/17 07:24:15;;;;;;;1999.90;999.90;;;-0.90;99.90;;;;;;5084465;28;20068;-77
2023/12/17 07:26:41;;;;;;;1999.90;999.90;;;-0.80;99.90;;;;;;5079952;28;20025;-77
2023/12/17 07:29:06;;;;;;;1999.90;999.90;;;-0.70;99.90;;;;;;5079861;28;20094;-75
2023/12/17 07:31:32;;;;;;;1999.90;999.90;;;-0.50;99.90;;;;;;5077079;28;20491;-75
2023/12/17 07:33:57;;;;;;;1999.90;999.90;;;-0.40;99.90;;;;;;5077595;28;20040;-80
2023/12/17 07:36:23;;;;;;;1999.90;999.90;;;-0.30;99.90;;;;;;5078979;28;20033;-76
2023/12/17 07:38:48;;;;;;;1999.90;999.90;;;-0.30;99.90;;;;;;5076872;28;20044;-74
2023/12/17 07:41:14;;;;;;;1999.90;999.90;;;-0.30;99.90;;;;;;5076954;28;20029;-75
2023/12/17 07:43:39;;;;;;;1999.90;999.90;;;-0.30;99.90;;;;;;5077596;28;20086;-77
2023/12/17 07:46:05;;;;;;;1999.90;999.90;;;-0.40;99.90;;;;;;5075693;28;20160;-77
2023/12/17 07:48:31;;;;;;;1999.90;999.90;;;-0.40;99.90;;;;;;5078413;28;20048;-78
2023/12/17 07:50:57;;;;;;;1999.90;999.90;;;-0.40;99.90;;;;;;5076638;28;20037;-81
2023/12/17 07:53:22;;;;;;;1999.90;999.90;;;-0.40;99.90;;;;;;5076042;28;20040;-80
2023/12/17 07:55:48;;;;;;;1999.90;999.90;;;-0.50;99.90;;;;;;5076354;28;20029;-79
2023/12/17 07:58:14;;;;;;;1999.90;999.90;;;-0.60;99.90;;;;;;5078089;28;20060;-78
2023/12/17 08:00:40;;;;;;;1999.90;999.90;;;-0.60;99.90;;;;;;5079819;28;20064;-78
2023/12/17 08:03:05;;;;;;;1999.90;999.90;;;-0.60;99.90;;;;;;5078341;28;20048;-77
2023/12/17 08:05:31;;;;;;;1999.90;999.90;;;-0.50;99.90;;;;;;5076752;28;20056;-79
2023/12/17 08:07:56;;;;;;;1999.90;999.90;;;-0.50;99.90;;;;;;5079338;28;20526;-77
2023/12/17 08:10:22;;;;;;;1999.90;999.90;;;-0.50;99.90;;;;;;5079691;28;20041;-79
2023/12/17 08:12:48;;;;;;;1999.90;999.90;;;-0.40;99.90;;;;;;5076473;28;20487;-82
2023/12/17 08:15:14;;;;;;;1999.90;999.90;;;-0.40;99.90;;;;;;5074672;28;20060;-75
2023/12/17 08:17:40;;;;;;;1999.90;999.90;;;-0.40;99.90;;;;;;5075001;28;20480;-78
2023/12/17 08:20:07;;;;;;;1999.90;999.90;;;-0.40;99.90;;;;;;5078277;28;20661;-75
2023/12/17 08:22:32;;;;;;;1999.90;999.90;;;-0.40;99.90;;;;;;5077364;28;20063;-75
2023/12/17 08:24:58;;;;;;;1999.90;999.90;;;-0.40;99.90;;;;;;5078134;28;20055;-75
2023/12/17 08:27:23;;;;;;;1999.90;999.90;;;-0.30;99.90;;;;;;5075557;28;20060;-75
2023/12/17 08:29:50;;;;;;;1999.90;999.90;;;-0.30;99.90;;;;;;5076265;28;20389;-75
2023/12/17 08:32:16;;;;;;;1999.90;999.90;;;-0.20;99.90;;;;;;5094448;28;20063;-75
2023/12/17 08:34:42;;;;;;;1999.90;999.90;;;-0.10;99.90;;;;;;5096110;28;20482;-76
2023/12/17 08:37:07;;;;;;;1999.90;999.90;;;-0.10;99.90;;;;;;5095563;28;20037;-75
2023/12/17 08:39:33;;;;;;;1999.90;999.90;;;-0.10;99.90;;;;;;5096202;28;20556;-76
2023/12/17 08:41:58;;;;;;;1999.90;999.90;;;0.00;99.90;;;;;;5096337;28;20039;-76
2023/12/17 08:44:25;;;;;;;1999.90;999.90;;;0.00;99.90;;;;;;5089589;28;20033;-74
2023/12/17 08:46:51;;;;;;;1999.90;999.90;;;0.00;99.90;;;;;;5084618;28;20457;-74
2023/12/17 08:49:17;;;;;;;1999.90;999.90;;;0.10;99.90;;;;;;5087564;28;20048;-79
2023/12/17 08:51:43;;;;;;;1999.90;999.90;;;0.10;99.90;;;;;;5093246;28;20510;-74
2023/12/17 08:54:12;;;;;;;1999.90;999.90;;;0.10;99.90;;;;;;5094740;28;20040;-75
2023/12/17 08:56:38;;;;;;;1999.90;999.90;;;0.20;99.90;;;;;;5095863;28;20035;-76
2023/12/17 08:59:04;;;;;;;1999.90;999.90;;;0.20;99.90;;;;;;5093923;28;20414;-76
2023/12/17 09:01:30;;;;;;;1999.90;999.90;;;0.30;99.90;;;;;;5091352;28;20036;-76
2023/12/17 09:03:55;;;;;;;1999.90;999.90;;;0.30;99.90;;;;;;5087610;28;20064;-77
2023/12/17 09:06:21;;;;;;;1999.90;999.90;;;0.40;99.90;;;;;;5092257;28;20029;-77
2023/12/17 09:08:46;;;;;;;1999.90;999.90;;;0.40;99.90;;;;;;5089697;28;20142;-77
2023/12/17 09:11:12;;;;;;;1999.90;999.90;;;0.40;99.90;;;;;;5094429;28;20032;-76
2023/12/17 09:13:38;;;;;;;1999.90;999.90;;;0.50;99.90;;;;;;5097315;28;20039;-76
2023/12/17 09:16:04;;;;;;;1999.90;999.90;;;0.60;99.90;;;;;;5095187;28;20152;-79
2023/12/17 09:18:29;;;;;;;1999.90;999.90;;;0.60;99.90;;;;;;5095569;28;20040;-76
2023/12/17 09:20:55;;;;;;;1999.90;999.90;;;0.70;99.90;;;;;;5097869;28;20044;-76
2023/12/17 09:23:21;;;;;;;1999.90;999.90;;;0.70;99.90;;;;;;5094149;28;20040;-76
2023/12/17 09:25:46;;;;;;;1999.90;999.90;;;0.80;99.90;;;;;;5095619;28;20086;-78
2023/12/17 09:28:12;;;;;;;1999.90;999.90;;;0.90;99.90;;;;;;5099573;28;20123;-78
2023/12/17 09:30:38;;;;;;;1999.90;999.90;;;0.90;99.90;;;;;;5099983;28;20029;-79
2023/12/17 09:33:03;;;;;;;1999.90;999.90;;;1.00;99.90;;;;;;5094809;28;20046;-77
2023/12/17 09:35:29;;;;;;;1999.90;999.90;;;1.10;99.90;;;;;;5094177;28;20032;-81
2023/12/17 09:37:54;;;;;;;1999.90;999.90;;;1.10;99.90;;;;;;5095555;28;20040;-76
2023/12/17 09:40:20;;;;;;;1999.90;999.90;;;1.10;99.90;;;;;;5093931;28;20079;-77
2023/12/17 09:42:52;;;;;;;1999.90;999.90;;;1.20;99.90;;;;;;5093963;28;20025;-77
2023/12/17 09:45:18;;;;;;;1999.90;999.90;;;1.30;99.90;;;;;;5095463;28;20028;-77
2023/12/17 09:47:43;;;;;;;1999.90;999.90;;;1.30;99.90;;;;;;5095089;28;20098;-82
2023/12/17 09:50:10;;;;;;;1999.90;999.90;;;1.40;99.90;;;;;;5095530;28;20107;-75
2023/12/17 09:52:41;;;;;;;1999.90;999.90;;;1.40;99.90;;;;;;5095516;28;20487;-75
2023/12/17 09:55:07;;;;;;;1999.90;999.90;;;1.50;99.90;;;;;;5093273;28;20457;-76
2023/12/17 09:57:32;;;;;;;1999.90;999.90;;;1.50;99.90;;;;;;5094541;28;20033;-75
2023/12/17 09:59:58;;;;;;;1999.90;999.90;;;1.60;99.90;;;;;;5093359;28;20032;-75
2023/12/17 10:02:23;;;;;;;1999.90;999.90;;;1.60;99.90;;;;;;5089709;28;20832;-74
2023/12/17 10:04:49;;;;;;;1999.90;999.90;;;1.60;99.90;;;;;;5074483;28;20514;-74
2023/12/17 10:07:14;;;;;;;1999.90;999.90;;;1.70;99.90;;;;;;5074161;28;20102;-75
2023/12/17 10:09:40;;;;;;;1999.90;999.90;;;1.60;99.90;;;;;;5073130;28;20060;-75
2023/12/17 10:12:06;;;;;;;1999.90;999.90;;;1.70;99.90;;;;;;5074411;28;20029;-75
2023/12/17 10:14:32;;;;;;;1999.90;999.90;;;1.70;99.90;;;;;;5079926;28;20051;-75
2023/12/17 10:16:58;;;;;;;1999.90;999.90;;;1.80;99.90;;;;;;5081226;28;20040;-74
2023/12/17 10:19:24;;;;;;;1999.90;999.90;;;1.80;99.90;;;;;;5093373;28;20619;-76
2023/12/17 10:21:50;;;;;;;1999.90;999.90;;;1.90;99.90;;;;;;5090238;28;20028;-75
2023/12/17 10:24:17;;;;;;;1999.90;999.90;;;2.00;99.90;;;;;;5081360;28;20576;-77
2023/12/17 10:26:48;;;;;;;1999.90;999.90;;;2.10;99.90;;;;;;5087941;28;20410;-74
2023/12/17 10:29:21;;;;;;;1999.90;999.90;;;2.20;99.90;;;;;;5089519;28;20490;-73
2023/12/17 10:31:47;;;;;;;1999.90;999.90;;;2.20;99.90;;;;;;5092968;28;20514;-74
2023/12/17 10:34:20;;;;;;;1999.90;999.90;;;2.30;99.90;;;;;;5075923;28;20045;-74
2023/12/17 10:36:49;;;;;;;1999.90;999.90;;;2.30;99.90;;;;;;5073887;28;20029;-73
2023/12/17 10:39:17;;;;;;;1999.90;999.90;;;2.40;99.90;;;;;;5073526;28;20075;-74
2023/12/17 10:41:43;;;;;;;1999.90;999.90;;;2.40;99.90;;;;;;5074223;28;20062;-74
2023/12/17 10:44:14;;;;;;;1999.90;999.90;;;2.40;99.90;;;;;;5074188;28;20037;-73
2023/12/17 10:46:44;;;;;;;1999.90;999.90;;;2.50;99.90;;;;;;5073759;28;20033;-74
2023/12/17 10:49:13;;;;;;;1999.90;999.90;;;2.60;99.90;;;;;;5073923;28;20033;-74
2023/12/17 10:51:40;;;;;;;1999.90;999.90;;;2.60;99.90;;;;;;5073881;28;20483;-74
2023/12/17 10:54:07;;;;;;;1999.90;999.90;;;2.70;99.90;;;;;;5082755;28;20045;-75
2023/12/17 10:56:40;;;;;;;1999.90;999.90;;;2.80;99.90;;;;;;5083042;28;20867;-74
2023/12/17 10:59:11;;;;;;;1999.90;999.90;;;2.80;99.90;;;;;;5079958;28;20076;-75
2023/12/17 11:01:39;;;;;;;1999.90;999.90;;;2.90;99.90;;;;;;5083055;28;20108;-76
2023/12/17 11:04:06;;;;;;;1999.90;999.90;;;2.90;99.90;;;;;;5079672;28;20108;-75
2023/12/17 11:06:32;;;;;;;1999.90;999.90;;;3.00;99.90;;;;;;5073275;28;20120;-75
2023/12/17 11:08:57;;;;;;;1999.90;999.90;;;3.10;99.90;;;;;;5082250;28;20116;-74
2023/12/17 11:11:23;;;;;;;1999.90;999.90;;;3.10;99.90;;;;;;5093990;28;20028;-74
2023/12/17 11:13:49;;;;;;;1999.90;999.90;;;3.20;99.90;;;;;;5090970;28;20111;-75
2023/12/17 11:16:32;;;;;;;1999.90;999.90;;;3.20;99.90;;;;;;5073782;28;20072;-74
2023/12/17 11:19:03;;;;;;;1999.90;999.90;;;3.30;99.90;;;;;;5072348;28;20083;-77
2023/12/17 11:21:29;;;;;;;1999.90;999.90;;;3.40;99.90;;;;;;5073563;28;20544;-77
2023/12/17 11:23:56;;;;;;;1999.90;999.90;;;3.50;99.90;;;;;;5074037;28;20053;-76
2023/12/17 11:26:22;;;;;;;1999.90;999.90;;;3.60;99.90;;;;;;5075658;28;20406;-75
2023/12/17 11:28:48;;;;;;;1999.90;999.90;;;3.70;99.90;;;;;;5078198;28;20037;-75
2023/12/17 11:31:14;;;;;;;1999.90;999.90;;;3.70;99.90;;;;;;5075502;28;20112;-74
2023/12/17 11:33:40;;;;;;;1999.90;999.90;;;3.80;99.90;;;;;;5077027;28;20032;-75
2023/12/17 11:36:11;;;;;;;1999.90;999.90;;;3.90;99.90;;;;;;5092488;28;20056;-74
2023/12/17 11:38:37;;;;;;;1999.90;999.90;;;3.90;99.90;;;;;;5096500;28;20041;-75
2023/12/17 11:41:03;;;;;;;1999.90;999.90;;;4.00;99.90;;;;;;5097280;28;20033;-75
2023/12/17 11:43:30;;;;;;;1999.90;999.90;;;4.10;99.90;;;;;;5097019;28;20036;-74
2023/12/17 11:45:56;;;;;;;1999.90;999.90;;;4.10;99.90;;;;;;5096443;28;20041;-75
2023/12/17 11:48:22;;;;;;;1999.90;999.90;;;4.20;99.90;;;;;;5097018;28;20036;-75
2023/12/17 11:50:55;;;;;;;1999.90;999.90;;;4.20;99.90;;;;;;5095762;28;20040;-75
2023/12/17 11:53:21;;;;;;;1999.90;999.90;;;4.20;99.90;;;;;;5096672;28;20028;-76
2023/12/17 11:55:52;;;;;;;1999.90;999.90;;;4.30;99.90;;;;;;5096691;28;20103;-75
2023/12/17 11:58:22;;;;;;;1999.90;999.90;;;4.30;99.90;;;;;;5096774;28;20032;-76